sensor_id;sensor_type;location;lat;lon;timestamp;pressure;altitude;pressure_sealevel;temperature;humidity
17060;BME280;8646;49.716;9.266;2023-09-19T00:01:42;99705.69;;;18.46;85.44
17060;BME280;8646;49.716;9.266;2023-09-19T00:04:46;99711.53;;;18.41;85.40
17060;BME280;8646;49.716;9.266;2023-09-19T00:07:51;99711.81;;;18.38;85.55
17060;BME280;8646;49.716;9.266;2023-09-19T00:10:56;99716.41;;;18.38;85.48
17060;BME280;8646;49.716;9.266;2023-09-19T00:14:05;99721.50;;;18.42;85.97
17060;BME280;8646;49.716;9.266;2023-09-19T00:17:10;99715.31;;;18.40;85.84
17060;BME280;8646;49.716;9.266;2023-09-19T00:20:14;99716.03;;;18.42;85.98
17060;BME280;8646;49.716;9.266;2023-09-19T00:23:19;99717.00;;;18.41;86.10
17060;BME280;8646;49.716;9.266;2023-09-19T00:26:22;99710.94;;;18.38;86.34
17060;BME280;8646;49.716;9.266;2023-09-19T00:29:26;99712.50;;;18.51;86.19
17060;BME280;8646;49.716;9.266;2023-09-19T00:32:30;99717.75;;;18.43;86.63
17060;BME280;8646;49.716;9.266;2023-09-19T00:35:33;99718.50;;;18.45;86.54
17060;BME280;8646;49.716;9.266;2023-09-19T00:38:36;99733.19;;;18.44;86.67
17060;BME280;8646;49.716;9.266;2023-09-19T00:41:39;99727.63;;;18.35;86.88
17060;BME280;8646;49.716;9.266;2023-09-19T00:44:43;99733.88;;;18.25;86.83
17060;BME280;8646;49.716;9.266;2023-09-19T00:47:48;99730.91;;;18.17;87.37
17060;BME280;8646;49.716;9.266;2023-09-19T00:50:52;99724.53;;;18.17;87.10
17060;BME280;8646;49.716;9.266;2023-09-19T00:53:55;99722.84;;;18.16;87.77
17060;BME280;8646;49.716;9.266;2023-09-19T00:56:59;99727.06;;;18.09;87.18
17060;BME280;8646;49.716;9.266;2023-09-19T01:00:05;99727.34;;;18.06;87.41
17060;BME280;8646;49.716;9.266;2023-09-19T01:03:09;99747.97;;;18.10;87.86
17060;BME280;8646;49.716;9.266;2023-09-19T01:06:12;99745.09;;;18.11;88.20
17060;BME280;8646;49.716;9.266;2023-09-19T01:09:15;99749.97;;;18.08;88.21
17060;BME280;8646;49.716;9.266;2023-09-19T01:12:26;99750.94;;;18.29;88.54
17060;BME280;8646;49.716;9.266;2023-09-19T01:15:41;99758.16;;;18.30;88.68
17060;BME280;8646;49.716;9.266;2023-09-19T01:18:52;99751.91;;;18.28;88.69
17060;BME280;8646;49.716;9.266;2023-09-19T01:22:07;99755.88;;;18.35;88.42
17060;BME280;8646;49.716;9.266;2023-09-19T01:25:37;99751.63;;;18.42;88.06
17060;BME280;8646;49.716;9.266;2023-09-19T01:28:53;99765.56;;;18.50;88.11
17060;BME280;8646;49.716;9.266;2023-09-19T01:31:59;99760.56;;;18.55;87.98
17060;BME280;8646;49.716;9.266;2023-09-19T01:35:05;99773.00;;;18.71;87.63
17060;BME280;8646;49.716;9.266;2023-09-19T01:38:08;99763.28;;;18.66;87.97
17060;BME280;8646;49.716;9.266;2023-09-19T01:41:19;99767.00;;;18.77;87.50
17060;BME280;8646;49.716;9.266;2023-09-19T01:44:30;99773.47;;;18.76;87.83
17060;BME280;8646;49.716;9.266;2023-09-19T01:47:37;99773.69;;;18.84;87.40
17060;BME280;8646;49.716;9.266;2023-09-19T01:50:52;99784.78;;;18.82;87.58
17060;BME280;8646;49.716;9.266;2023-09-19T01:54:02;99784.41;;;18.87;87.42
17060;BME280;8646;49.716;9.266;2023-09-19T01:57:13;99775.78;;;18.91;87.29
17060;BME280;8646;49.716;9.266;2023-09-19T02:00:18;99772.66;;;18.96;87.19
17060;BME280;8646;49.716;9.266;2023-09-19T02:03:24;99764.34;;;19.07;86.87
17060;BME280;8646;49.716;9.266;2023-09-19T02:06:31;99776.31;;;19.06;86.97
17060;BME280;8646;49.716;9.266;2023-09-19T02:09:35;99782.88;;;19.15;86.67
17060;BME280;8646;49.716;9.266;2023-09-19T02:12:40;99782.88;;;19.15;87.14
17060;BME280;8646;49.716;9.266;2023-09-19T02:15:43;99782.19;;;19.13;87.25
17060;BME280;8646;49.716;9.266;2023-09-19T02:18:48;99791.00;;;19.16;87.69
17060;BME280;8646;49.716;9.266;2023-09-19T02:21:52;99794.06;;;19.02;88.07
17060;BME280;8646;49.716;9.266;2023-09-19T02:24:55;99796.88;;;19.12;88.41
17060;BME280;8646;49.716;9.266;2023-09-19T02:28:00;99805.03;;;19.02;89.00
17060;BME280;8646;49.716;9.266;2023-09-19T02:31:05;99811.16;;;18.94;89.03
17060;BME280;8646;49.716;9.266;2023-09-19T02:34:09;99815.31;;;18.89;89.20
17060;BME280;8646;49.716;9.266;2023-09-19T02:37:12;99820.03;;;18.87;89.35
17060;BME280;8646;49.716;9.266;2023-09-19T02:40:18;99807.78;;;18.91;88.93
17060;BME280;8646;49.716;9.266;2023-09-19T02:43:25;99813.69;;;18.86;89.47
17060;BME280;8646;49.716;9.266;2023-09-19T02:46:28;99812.94;;;18.84;90.04
17060;BME280;8646;49.716;9.266;2023-09-19T02:49:32;99815.91;;;18.92;89.08
17060;BME280;8646;49.716;9.266;2023-09-19T02:52:36;99822.50;;;18.90;90.14
17060;BME280;8646;49.716;9.266;2023-09-19T02:55:39;99809.63;;;18.70;91.25
17060;BME280;8646;49.716;9.266;2023-09-19T02:58:42;99834.66;;;18.65;91.82
17060;BME280;8646;49.716;9.266;2023-09-19T03:01:45;99839.53;;;18.61;90.75
17060;BME280;8646;49.716;9.266;2023-09-19T03:04:51;99850.50;;;18.61;91.37
17060;BME280;8646;49.716;9.266;2023-09-19T03:07:54;99853.50;;;18.47;93.16
17060;BME280;8646;49.716;9.266;2023-09-19T03:10:57;99867.06;;;18.26;94.07
17060;BME280;8646;49.716;9.266;2023-09-19T03:14:02;99866.94;;;18.17;95.17
17060;BME280;8646;49.716;9.266;2023-09-19T03:17:05;99864.34;;;18.15;94.40
17060;BME280;8646;49.716;9.266;2023-09-19T03:20:11;99866.34;;;18.13;94.41
17060;BME280;8646;49.716;9.266;2023-09-19T03:23:19;99875.53;;;18.12;94.94
17060;BME280;8646;49.716;9.266;2023-09-19T03:26:22;99875.44;;;18.14;94.66
17060;BME280;8646;49.716;9.266;2023-09-19T03:29:25;99874.16;;;18.18;93.74
17060;BME280;8646;49.716;9.266;2023-09-19T03:32:28;99877.03;;;18.16;93.98
17060;BME280;8646;49.716;9.266;2023-09-19T03:35:32;99875.16;;;18.17;93.75
17060;BME280;8646;49.716;9.266;2023-09-19T03:38:36;99863.72;;;18.12;94.21
17060;BME280;8646;49.716;9.266;2023-09-19T03:41:39;99869.06;;;18.13;93.40
17060;BME280;8646;49.716;9.266;2023-09-19T03:44:42;99872.16;;;18.09;93.66
17060;BME280;8646;49.716;9.266;2023-09-19T03:47:44;99880.88;;;18.03;94.33
17060;BME280;8646;49.716;9.266;2023-09-19T03:50:53;99888.59;;;17.98;93.86
17060;BME280;8646;49.716;9.266;2023-09-19T03:53:58;99889.34;;;17.88;93.82
17060;BME280;8646;49.716;9.266;2023-09-19T03:57:01;99890.28;;;17.76;93.95
17060;BME280;8646;49.716;9.266;2023-09-19T04:00:06;99898.22;;;17.68;94.25
17060;BME280;8646;49.716;9.266;2023-09-19T04:03:13;99882.31;;;17.62;93.77
17060;BME280;8646;49.716;9.266;2023-09-19T04:06:23;99888.06;;;17.46;93.74
17060;BME280;8646;49.716;9.266;2023-09-19T04:09:26;99900.38;;;17.41;94.20
17060;BME280;8646;49.716;9.266;2023-09-19T04:12:29;99892.66;;;17.35;93.79
17060;BME280;8646;49.716;9.266;2023-09-19T04:15:32;99906.78;;;17.29;93.80
17060;BME280;8646;49.716;9.266;2023-09-19T04:18:35;99900.03;;;17.22;94.57
17060;BME280;8646;49.716;9.266;2023-09-19T04:21:41;99908.72;;;17.15;94.52
17060;BME280;8646;49.716;9.266;2023-09-19T04:24:44;99904.47;;;17.11;94.04
17060;BME280;8646;49.716;9.266;2023-09-19T04:32:12;99915.47;;;16.99;95.19
17060;BME280;8646;49.716;9.266;2023-09-19T04:35:17;99914.81;;;16.95;95.09
17060;BME280;8646;49.716;9.266;2023-09-19T04:38:21;99917.91;;;16.91;95.09
17060;BME280;8646;49.716;9.266;2023-09-19T04:41:25;99918.56;;;16.94;94.77
17060;BME280;8646;49.716;9.266;2023-09-19T04:44:27;99916.34;;;16.99;93.56
17060;BME280;8646;49.716;9.266;2023-09-19T04:47:30;99919.25;;;17.09;94.89
17060;BME280;8646;49.716;9.266;2023-09-19T04:50:33;99930.50;;;17.04;95.93
17060;BME280;8646;49.716;9.266;2023-09-19T04:53:40;99935.06;;;16.93;95.60
17060;BME280;8646;49.716;9.266;2023-09-19T04:56:42;99937.38;;;16.86;95.77
17060;BME280;8646;49.716;9.266;2023-09-19T04:59:45;99941.31;;;16.82;95.71
17060;BME280;8646;49.716;9.266;2023-09-19T05:02:49;99948.75;;;16.80;95.38
17060;BME280;8646;49.716;9.266;2023-09-19T05:05:52;99946.47;;;16.74;95.20
17060;BME280;8646;49.716;9.266;2023-09-19T05:08:57;99953.19;;;16.70;95.75
17060;BME280;8646;49.716;9.266;2023-09-19T05:12:00;99947.81;;;16.68;95.67
17060;BME280;8646;49.716;9.266;2023-09-19T05:15:02;99945.09;;;16.68;95.34
17060;BME280;8646;49.716;9.266;2023-09-19T05:18:06;99958.75;;;16.68;95.30
17060;BME280;8646;49.716;9.266;2023-09-19T05:21:09;99966.69;;;16.71;95.46
17060;BME280;8646;49.716;9.266;2023-09-19T05:24:13;99966.47;;;16.74;96.09
17060;BME280;8646;49.716;9.266;2023-09-19T05:27:16;99970.63;;;16.80;95.35
17060;BME280;8646;49.716;9.266;2023-09-19T05:30:19;99976.63;;;16.85;95.26
17060;BME280;8646;49.716;9.266;2023-09-19T05:33:22;99979.66;;;16.93;94.91
17060;BME280;8646;49.716;9.266;2023-09-19T05:36:24;99984.78;;;16.98;95.81
17060;BME280;8646;49.716;9.266;2023-09-19T05:39:29;99986.16;;;17.03;94.68
17060;BME280;8646;49.716;9.266;2023-09-19T05:42:31;99987.59;;;17.09;94.83
17060;BME280;8646;49.716;9.266;2023-09-19T05:45:34;99996.72;;;17.21;93.63
17060;BME280;8646;49.716;9.266;2023-09-19T05:48:38;99992.50;;;17.16;94.65
17060;BME280;8646;49.716;9.266;2023-09-19T05:51:41;99994.97;;;17.20;94.55
17060;BME280;8646;49.716;9.266;2023-09-19T05:54:45;99999.22;;;17.24;93.89
17060;BME280;8646;49.716;9.266;2023-09-19T05:57:49;99988.91;;;17.27;93.62
17060;BME280;8646;49.716;9.266;2023-09-19T06:00:53;99996.03;;;17.30;93.89
17060;BME280;8646;49.716;9.266;2023-09-19T06:03:57;99998.66;;;17.31;94.16
17060;BME280;8646;49.716;9.266;2023-09-19T06:07:03;99995.56;;;17.36;93.89
17060;BME280;8646;49.716;9.266;2023-09-19T06:10:08;99997.19;;;17.38;94.44
17060;BME280;8646;49.716;9.266;2023-09-19T06:13:11;100009.31;;;17.47;93.63
17060;BME280;8646;49.716;9.266;2023-09-19T06:16:14;100008.84;;;17.53;93.74
17060;BME280;8646;49.716;9.266;2023-09-19T06:19:17;100004.44;;;17.63;93.15
17060;BME280;8646;49.716;9.266;2023-09-19T06:22:20;100006.59;;;17.71;92.56
17060;BME280;8646;49.716;9.266;2023-09-19T06:25:24;100003.50;;;17.75;91.85
17060;BME280;8646;49.716;9.266;2023-09-19T06:28:27;100017.22;;;17.86;91.03
17060;BME280;8646;49.716;9.266;2023-09-19T06:31:30;100019.63;;;17.91;91.42
17060;BME280;8646;49.716;9.266;2023-09-19T06:34:33;100008.56;;;18.04;90.61
17060;BME280;8646;49.716;9.266;2023-09-19T06:37:36;100011.09;;;18.18;90.70
17060;BME280;8646;49.716;9.266;2023-09-19T06:40:41;100018.22;;;18.32;90.52
17060;BME280;8646;49.716;9.266;2023-09-19T06:43:44;100014.63;;;18.42;90.12
17060;BME280;8646;49.716;9.266;2023-09-19T06:46:47;100011.78;;;18.55;89.29
17060;BME280;8646;49.716;9.266;2023-09-19T06:49:53;100019.91;;;18.67;89.14
17060;BME280;8646;49.716;9.266;2023-09-19T06:52:56;100022.16;;;18.85;87.84
17060;BME280;8646;49.716;9.266;2023-09-19T06:56:03;100034.00;;;18.96;88.56
17060;BME280;8646;49.716;9.266;2023-09-19T06:59:08;100031.84;;;19.11;87.66
17060;BME280;8646;49.716;9.266;2023-09-19T07:02:10;100046.28;;;19.24;86.83
17060;BME280;8646;49.716;9.266;2023-09-19T07:05:15;100044.78;;;19.31;86.49
17060;BME280;8646;49.716;9.266;2023-09-19T07:08:18;100042.25;;;19.39;86.71
17060;BME280;8646;49.716;9.266;2023-09-19T07:11:22;100057.00;;;19.50;86.02
17060;BME280;8646;49.716;9.266;2023-09-19T07:14:25;100063.72;;;19.57;85.85
17060;BME280;8646;49.716;9.266;2023-09-19T07:17:28;100059.44;;;19.64;85.29
17060;BME280;8646;49.716;9.266;2023-09-19T07:20:32;100062.53;;;19.70;85.37
17060;BME280;8646;49.716;9.266;2023-09-19T07:23:36;100070.00;;;19.79;84.84
17060;BME280;8646;49.716;9.266;2023-09-19T07:26:41;100075.88;;;19.86;85.01
17060;BME280;8646;49.716;9.266;2023-09-19T07:29:44;100073.59;;;19.91;84.88
17060;BME280;8646;49.716;9.266;2023-09-19T07:32:51;100075.06;;;19.95;84.38
17060;BME280;8646;49.716;9.266;2023-09-19T07:35:54;100083.06;;;19.98;83.88
17060;BME280;8646;49.716;9.266;2023-09-19T07:38:56;100089.00;;;20.03;83.41
17060;BME280;8646;49.716;9.266;2023-09-19T07:42:21;100085.56;;;20.01;81.80
17060;BME280;8646;49.716;9.266;2023-09-19T07:45:23;100084.25;;;20.05;82.12
17060;BME280;8646;49.716;9.266;2023-09-19T07:48:26;100089.50;;;20.08;81.70
17060;BME280;8646;49.716;9.266;2023-09-19T07:51:29;100081.72;;;20.13;81.60
17060;BME280;8646;49.716;9.266;2023-09-19T07:54:32;100087.97;;;20.15;79.72
17060;BME280;8646;49.716;9.266;2023-09-19T07:57:38;100100.72;;;20.16;79.77
17060;BME280;8646;49.716;9.266;2023-09-19T08:00:42;100083.94;;;20.19;78.23
17060;BME280;8646;49.716;9.266;2023-09-19T08:03:45;100082.94;;;20.20;78.71
17060;BME280;8646;49.716;9.266;2023-09-19T08:06:48;100088.38;;;20.32;77.44
17060;BME280;8646;49.716;9.266;2023-09-19T08:09:53;100083.88;;;20.42;77.22
17060;BME280;8646;49.716;9.266;2023-09-19T08:12:57;100095.47;;;20.45;75.42
17060;BME280;8646;49.716;9.266;2023-09-19T08:16:03;100094.59;;;20.45;74.15
17060;BME280;8646;49.716;9.266;2023-09-19T08:19:07;100090.59;;;20.49;73.39
17060;BME280;8646;49.716;9.266;2023-09-19T08:22:12;100097.81;;;20.50;73.87
17060;BME280;8646;49.716;9.266;2023-09-19T08:25:15;100096.00;;;20.60;72.87
17060;BME280;8646;49.716;9.266;2023-09-19T08:28:21;100101.97;;;20.65;72.95
17060;BME280;8646;49.716;9.266;2023-09-19T08:31:27;100092.72;;;20.66;72.00
17060;BME280;8646;49.716;9.266;2023-09-19T08:34:31;100096.66;;;20.73;71.46
17060;BME280;8646;49.716;9.266;2023-09-19T08:37:35;100094.25;;;20.80;71.67
17060;BME280;8646;49.716;9.266;2023-09-19T08:40:38;100093.69;;;20.86;71.88
17060;BME280;8646;49.716;9.266;2023-09-19T08:43:45;100091.06;;;20.84;70.39
17060;BME280;8646;49.716;9.266;2023-09-19T08:46:51;100106.75;;;20.93;70.21
17060;BME280;8646;49.716;9.266;2023-09-19T08:50:01;100109.00;;;21.00;69.61
17060;BME280;8646;49.716;9.266;2023-09-19T08:53:21;100114.19;;;21.03;68.64
17060;BME280;8646;49.716;9.266;2023-09-19T08:56:32;100110.00;;;20.99;68.29
17060;BME280;8646;49.716;9.266;2023-09-19T08:59:37;100114.50;;;21.00;67.58
17060;BME280;8646;49.716;9.266;2023-09-19T09:02:42;100112.25;;;20.93;65.82
17060;BME280;8646;49.716;9.266;2023-09-19T09:05:50;100115.75;;;20.95;66.18
17060;BME280;8646;49.716;9.266;2023-09-19T09:08:54;100108.25;;;20.98;65.60
17060;BME280;8646;49.716;9.266;2023-09-19T09:12:00;100112.88;;;20.97;65.04
17060;BME280;8646;49.716;9.266;2023-09-19T09:15:06;100102.75;;;20.98;64.67
17060;BME280;8646;49.716;9.266;2023-09-19T09:18:10;100110.19;;;21.07;64.81
17060;BME280;8646;49.716;9.266;2023-09-19T09:21:13;100103.31;;;21.22;65.30
17060;BME280;8646;49.716;9.266;2023-09-19T09:24:26;100108.19;;;21.39;65.79
17060;BME280;8646;49.716;9.266;2023-09-19T09:27:29;100100.78;;;21.49;65.40
17060;BME280;8646;49.716;9.266;2023-09-19T09:30:37;100106.81;;;21.64;63.14
17060;BME280;8646;49.716;9.266;2023-09-19T09:33:40;100094.63;;;21.76;62.27
17060;BME280;8646;49.716;9.266;2023-09-19T09:36:48;100099.03;;;21.88;62.01
17060;BME280;8646;49.716;9.266;2023-09-19T09:39:52;100101.94;;;21.96;59.26
17060;BME280;8646;49.716;9.266;2023-09-19T09:42:57;100101.69;;;22.09;60.11
17060;BME280;8646;49.716;9.266;2023-09-19T09:46:16;100104.31;;;22.20;58.98
17060;BME280;8646;49.716;9.266;2023-09-19T09:49:37;100104.44;;;22.19;56.15
17060;BME280;8646;49.716;9.266;2023-09-19T09:52:46;100093.56;;;22.17;54.92
17060;BME280;8646;49.716;9.266;2023-09-19T09:56:00;100080.19;;;22.22;52.90
17060;BME280;8646;49.716;9.266;2023-09-19T09:59:04;100098.78;;;22.20;55.63
17060;BME280;8646;49.716;9.266;2023-09-19T10:02:08;100110.38;;;22.33;55.27
17060;BME280;8646;49.716;9.266;2023-09-19T10:05:16;100098.91;;;22.48;54.14
17060;BME280;8646;49.716;9.266;2023-09-19T10:08:29;100088.59;;;22.50;52.09
17060;BME280;8646;49.716;9.266;2023-09-19T10:11:33;100098.75;;;22.49;52.81
17060;BME280;8646;49.716;9.266;2023-09-19T10:14:41;100100.22;;;22.53;51.21
17060;BME280;8646;49.716;9.266;2023-09-19T10:17:51;100104.13;;;22.51;50.04
17060;BME280;8646;49.716;9.266;2023-09-19T10:21:01;100074.41;;;22.25;48.23
17060;BME280;8646;49.716;9.266;2023-09-19T10:24:07;100105.47;;;22.27;48.13
17060;BME280;8646;49.716;9.266;2023-09-19T10:27:11;100079.31;;;22.22;47.40
17060;BME280;8646;49.716;9.266;2023-09-19T10:30:14;100086.91;;;22.29;47.39
17060;BME280;8646;49.716;9.266;2023-09-19T10:33:20;100079.78;;;22.27;46.35
17060;BME280;8646;49.716;9.266;2023-09-19T10:36:24;100086.59;;;22.23;47.13
17060;BME280;8646;49.716;9.266;2023-09-19T10:39:30;100088.03;;;22.27;45.87
17060;BME280;8646;49.716;9.266;2023-09-19T10:42:38;100089.50;;;22.21;47.17
17060;BME280;8646;49.716;9.266;2023-09-19T10:45:44;100095.44;;;22.26;47.57
17060;BME280;8646;49.716;9.266;2023-09-19T10:48:51;100107.75;;;22.41;48.25
17060;BME280;8646;49.716;9.266;2023-09-19T10:51:59;100103.13;;;22.52;47.76
17060;BME280;8646;49.716;9.266;2023-09-19T10:55:04;100102.94;;;22.63;47.93
17060;BME280;8646;49.716;9.266;2023-09-19T10:58:08;100112.25;;;22.81;48.36
17060;BME280;8646;49.716;9.266;2023-09-19T11:01:16;100104.94;;;22.99;48.43
17060;BME280;8646;49.716;9.266;2023-09-19T11:04:26;100103.03;;;23.09;48.19
17060;BME280;8646;49.716;9.266;2023-09-19T11:07:31;100097.91;;;23.14;46.92
17060;BME280;8646;49.716;9.266;2023-09-19T11:10:46;100096.91;;;23.15;44.76
17060;BME280;8646;49.716;9.266;2023-09-19T11:14:13;100093.13;;;23.16;43.33
17060;BME280;8646;49.716;9.266;2023-09-19T11:17:38;100100.56;;;22.97;45.48
17060;BME280;8646;49.716;9.266;2023-09-19T11:20:45;100095.44;;;23.11;46.08
17060;BME280;8646;49.716;9.266;2023-09-19T11:27:29;100087.50;;;23.36;45.31
17060;BME280;8646;49.716;9.266;2023-09-19T11:30:54;100081.38;;;23.42;44.10
17060;BME280;8646;49.716;9.266;2023-09-19T11:38:01;100064.53;;;23.35;44.13
17060;BME280;8646;49.716;9.266;2023-09-19T11:41:37;100065.09;;;23.39;45.14
17060;BME280;8646;49.716;9.266;2023-09-19T11:44:40;100069.59;;;23.49;45.28
17060;BME280;8646;49.716;9.266;2023-09-19T11:47:45;100066.50;;;23.52;45.27
17060;BME280;8646;49.716;9.266;2023-09-19T11:50:49;100051.31;;;23.39;45.14
17060;BME280;8646;49.716;9.266;2023-09-19T11:53:55;100062.97;;;23.33;45.35
17060;BME280;8646;49.716;9.266;2023-09-19T11:56:59;100063.16;;;23.21;45.78
17060;BME280;8646;49.716;9.266;2023-09-19T12:00:03;100066.38;;;23.17;45.67
17060;BME280;8646;49.716;9.266;2023-09-19T12:03:11;100058.13;;;23.07;44.79
17060;BME280;8646;49.716;9.266;2023-09-19T12:06:16;100053.69;;;22.87;44.24
17060;BME280;8646;49.716;9.266;2023-09-19T12:09:20;100048.22;;;22.68;45.48
17060;BME280;8646;49.716;9.266;2023-09-19T12:12:25;100046.34;;;22.59;46.32
17060;BME280;8646;49.716;9.266;2023-09-19T12:15:29;100044.47;;;22.69;46.75
17060;BME280;8646;49.716;9.266;2023-09-19T12:18:36;100047.03;;;22.90;46.22
17060;BME280;8646;49.716;9.266;2023-09-19T12:21:39;100033.34;;;22.98;46.02
17060;BME280;8646;49.716;9.266;2023-09-19T12:24:45;100029.81;;;23.05;45.96
17060;BME280;8646;49.716;9.266;2023-09-19T12:27:49;100034.44;;;23.14;45.98
17060;BME280;8646;49.716;9.266;2023-09-19T12:30:54;100031.59;;;23.34;46.25
17060;BME280;8646;49.716;9.266;2023-09-19T12:33:59;100029.91;;;23.50;45.08
17060;BME280;8646;49.716;9.266;2023-09-19T12:37:10;100024.63;;;23.57;44.25
17060;BME280;8646;49.716;9.266;2023-09-19T12:40:24;100027.78;;;23.62;44.59
17060;BME280;8646;49.716;9.266;2023-09-19T12:43:31;100016.81;;;23.70;43.73
17060;BME280;8646;49.716;9.266;2023-09-19T12:46:36;100019.72;;;23.69;44.29
17060;BME280;8646;49.716;9.266;2023-09-19T12:50:05;100018.25;;;23.74;43.90
17060;BME280;8646;49.716;9.266;2023-09-19T12:53:24;100007.81;;;23.68;42.77
17060;BME280;8646;49.716;9.266;2023-09-19T12:56:39;100016.19;;;23.58;42.80
17060;BME280;8646;49.716;9.266;2023-09-19T12:59:43;100010.72;;;23.49;43.20
17060;BME280;8646;49.716;9.266;2023-09-19T13:03:14;100021.66;;;23.41;43.04
17060;BME280;8646;49.716;9.266;2023-09-19T13:06:35;100025.03;;;23.35;43.50
17060;BME280;8646;49.716;9.266;2023-09-19T13:09:40;100003.78;;;23.35;43.19
17060;BME280;8646;49.716;9.266;2023-09-19T13:12:44;100008.38;;;23.44;43.15
17060;BME280;8646;49.716;9.266;2023-09-19T13:15:52;100010.41;;;23.52;43.08
17060;BME280;8646;49.716;9.266;2023-09-19T13:18:55;100013.34;;;23.68;43.02
17060;BME280;8646;49.716;9.266;2023-09-19T13:21:59;100000.91;;;23.82;42.83
17060;BME280;8646;49.716;9.266;2023-09-19T13:25:03;100000.09;;;23.89;42.92
17060;BME280;8646;49.716;9.266;2023-09-19T13:28:09;100002.47;;;24.02;43.10
17060;BME280;8646;49.716;9.266;2023-09-19T13:31:12;99997.16;;;24.09;42.79
17060;BME280;8646;49.716;9.266;2023-09-19T13:34:16;99977.81;;;24.09;43.11
17060;BME280;8646;49.716;9.266;2023-09-19T13:37:19;99978.16;;;24.23;42.03
17060;BME280;8646;49.716;9.266;2023-09-19T13:40:22;99984.88;;;24.21;41.43
17060;BME280;8646;49.716;9.266;2023-09-19T13:43:27;99978.16;;;24.23;41.67
17060;BME280;8646;49.716;9.266;2023-09-19T13:46:30;99979.53;;;24.10;41.25
17060;BME280;8646;49.716;9.266;2023-09-19T13:49:36;99966.16;;;23.97;41.71
17060;BME280;8646;49.716;9.266;2023-09-19T13:52:39;99966.16;;;23.79;42.32
17060;BME280;8646;49.716;9.266;2023-09-19T13:55:43;99965.22;;;23.71;42.25
17060;BME280;8646;49.716;9.266;2023-09-19T13:58:47;99978.88;;;23.72;42.29
17060;BME280;8646;49.716;9.266;2023-09-19T14:01:50;99967.50;;;23.75;41.05
17060;BME280;8646;49.716;9.266;2023-09-19T14:04:55;99972.09;;;23.67;41.56
17060;BME280;8646;49.716;9.266;2023-09-19T14:08:01;99968.53;;;23.74;40.75
17060;BME280;8646;49.716;9.266;2023-09-19T14:11:05;99973.66;;;23.69;41.05
17060;BME280;8646;49.716;9.266;2023-09-19T14:14:10;99978.06;;;23.62;41.16
17060;BME280;8646;49.716;9.266;2023-09-19T14:17:12;99967.03;;;23.62;40.79
17060;BME280;8646;49.716;9.266;2023-09-19T14:20:17;99968.28;;;23.68;40.86
17060;BME280;8646;49.716;9.266;2023-09-19T14:23:20;99959.53;;;23.72;40.50
17060;BME280;8646;49.716;9.266;2023-09-19T14:26:24;99960.84;;;23.68;40.96
17060;BME280;8646;49.716;9.266;2023-09-19T14:29:29;99965.69;;;23.66;41.46
17060;BME280;8646;49.716;9.266;2023-09-19T14:32:32;99956.78;;;23.72;41.92
17060;BME280;8646;49.716;9.266;2023-09-19T14:35:37;99953.94;;;23.82;42.36
17060;BME280;8646;49.716;9.266;2023-09-19T14:38:40;99960.06;;;23.93;42.37
17060;BME280;8646;49.716;9.266;2023-09-19T14:41:43;99966.06;;;24.07;41.91
17060;BME280;8646;49.716;9.266;2023-09-19T14:44:50;99963.69;;;24.12;42.37
17060;BME280;8646;49.716;9.266;2023-09-19T14:47:52;99964.75;;;24.19;42.43
17060;BME280;8646;49.716;9.266;2023-09-19T14:51:01;99960.03;;;24.29;42.72
17060;BME280;8646;49.716;9.266;2023-09-19T14:54:05;99962.16;;;24.35;42.49
17060;BME280;8646;49.716;9.266;2023-09-19T14:57:09;99955.03;;;24.32;42.76
17060;BME280;8646;49.716;9.266;2023-09-19T15:00:14;99952.78;;;24.28;42.87
17060;BME280;8646;49.716;9.266;2023-09-19T15:03:18;99952.31;;;24.15;43.12
17060;BME280;8646;49.716;9.266;2023-09-19T15:06:21;99958.94;;;24.04;43.17
17060;BME280;8646;49.716;9.266;2023-09-19T15:09:25;99949.59;;;23.79;43.26
17060;BME280;8646;49.716;9.266;2023-09-19T15:12:29;99951.56;;;23.69;43.50
17060;BME280;8646;49.716;9.266;2023-09-19T15:15:33;99956.31;;;23.59;43.94
17060;BME280;8646;49.716;9.266;2023-09-19T15:18:36;99954.88;;;23.55;44.31
17060;BME280;8646;49.716;9.266;2023-09-19T15:21:41;99945.44;;;23.48;44.33
17060;BME280;8646;49.716;9.266;2023-09-19T15:24:44;99959.56;;;23.45;44.32
17060;BME280;8646;49.716;9.266;2023-09-19T15:27:47;99944.25;;;23.33;44.53
17060;BME280;8646;49.716;9.266;2023-09-19T15:30:59;99944.56;;;23.30;44.74
17060;BME280;8646;49.716;9.266;2023-09-19T15:34:02;99937.63;;;23.26;44.74
17060;BME280;8646;49.716;9.266;2023-09-19T15:37:05;99944.06;;;23.16;44.96
17060;BME280;8646;49.716;9.266;2023-09-19T15:40:09;99947.84;;;23.15;45.25
17060;BME280;8646;49.716;9.266;2023-09-19T15:43:15;99943.66;;;23.11;45.50
17060;BME280;8646;49.716;9.266;2023-09-19T15:46:20;99939.19;;;23.10;45.50
17060;BME280;8646;49.716;9.266;2023-09-19T15:49:23;99939.47;;;23.07;45.70
17060;BME280;8646;49.716;9.266;2023-09-19T15:52:26;99939.78;;;23.04;46.14
17060;BME280;8646;49.716;9.266;2023-09-19T15:55:29;99935.28;;;23.03;46.29
17060;BME280;8646;49.716;9.266;2023-09-19T15:58:32;99929.06;;;23.01;46.26
17060;BME280;8646;49.716;9.266;2023-09-19T16:01:37;99933.13;;;22.97;46.42
17060;BME280;8646;49.716;9.266;2023-09-19T16:04:42;99935.50;;;22.92;46.61
17060;BME280;8646;49.716;9.266;2023-09-19T16:07:46;99936.81;;;22.88;46.76
17060;BME280;8646;49.716;9.266;2023-09-19T16:10:49;99935.25;;;22.86;46.83
17060;BME280;8646;49.716;9.266;2023-09-19T16:13:53;99937.84;;;22.87;47.03
17060;BME280;8646;49.716;9.266;2023-09-19T16:16:57;99935.41;;;22.84;47.23
17060;BME280;8646;49.716;9.266;2023-09-19T16:20:01;99933.66;;;22.83;47.26
17060;BME280;8646;49.716;9.266;2023-09-19T16:23:04;99933.94;;;22.80;47.48
17060;BME280;8646;49.716;9.266;2023-09-19T16:26:10;99936.44;;;22.73;47.55
17060;BME280;8646;49.716;9.266;2023-09-19T16:29:14;99937.03;;;22.67;47.63
17060;BME280;8646;49.716;9.266;2023-09-19T16:32:19;99934.59;;;22.55;47.90
17060;BME280;8646;49.716;9.266;2023-09-19T16:35:22;99927.72;;;22.41;48.11
17060;BME280;8646;49.716;9.266;2023-09-19T16:38:25;99935.44;;;22.37;48.25
17060;BME280;8646;49.716;9.266;2023-09-19T16:41:29;99931.97;;;22.26;48.54
17060;BME280;8646;49.716;9.266;2023-09-19T16:44:32;99937.81;;;22.13;48.91